Time,TemperatureF,DewpointF,PressureIn,WindDirection,WindDirectionDegrees,WindSpeedMPH,WindSpeedGustMPH,Humidity,HourlyPrecipIn,Conditions,Clouds,dailyrainin,SoftwareType,DateUTC
2013-02-08 00:04:00,29.5,27.4,29.92,North,0,0.0,0.0,92,0.00,RA,,0.00,WeatherDisplay:10.37,2013-02-08 08:04:00,
2013-02-08 00:09:00,29.5,27.4,29.92,North,0,0.0,0.0,92,0.00,RA,,0.00,WeatherDisplay:10.37,2013-02-08 08:09:00,
2013-02-08 00:14:00,29.5,27.4,29.92,North,0,0.0,0.0,92,0.00,CLR,,0.00,WeatherDisplay:10.37,2013-02-08 08:14:00,
2013-02-08 00:19:00,29.5,27.4,29.92,North,0,0.0,0.0,92,0.00,CLR,,0.00,WeatherDisplay:10.37,2013-02-08 08:19:00,
2013-02-08 00:24:00,29.7,27.9,29.92,NW,315,0.0,0.0,93,0.00,CLR,,0.00,WeatherDisplay:10.37,2013-02-08 08:24:00,
2013-02-08 00:29:00,29.8,28.1,29.93,NW,315,0.0,0.0,93,0.00,CLR,,0.00,WeatherDisplay:10.37,2013-02-08 08:29:00,
2013-02-08 00:34:00,30.0,28.2,29.93,NW,315,0.0,0.0,93,0.00,CLR,,0.00,WeatherDisplay:10.37,2013-02-08 08:34:00,
2013-02-08 00:39:00,30.4,28.6,29.93,NW,315,0.0,0.0,93,0.00,CLR,,0.00,WeatherDisplay:10.37,2013-02-08 08:39:00,
2013-02-08 00:44:00,30.7,29.0,29.93,NW,315,0.0,0.0,93,0.00,CLR,,0.00,WeatherDisplay:10.37,2013-02-08 08:44:00,
2013-02-08 00:49:00,30.9,29.1,29.93,NW,315,0.0,0.0,93,0.00,CLR,,0.00,WeatherDisplay:10.37,2013-02-08 08:49:00,
2013-02-08 00:54:00,31.3,29.5,29.93,NW,315,0.0,0.0,93,0.00,CLR,,0.00,WeatherDisplay:10.37,2013-02-08 08:54:00,
2013-02-08 00:59:00,31.6,29.8,29.93,NW,315,0.0,0.0,93,0.00,CLR,,0.00,WeatherDisplay:10.37,2013-02-08 08:59:00,
2013-02-08 01:04:00,31.8,30.0,29.93,NW,315,0.0,0.0,93,0.00,CLR,,0.00,WeatherDisplay:10.37,2013-02-08 09:04:00,
2013-02-08 01:09:00,31.8,30.0,29.93,NW,315,0.0,0.0,93,0.00,CLR,,0.00,WeatherDisplay:10.37,2013-02-08 09:09:00,
2013-02-08 01:14:00,31.8,30.0,29.93,NW,315,0.0,0.0,93,0.00,CLR,,0.00,WeatherDisplay:10.37,2013-02-08 09:14:00,
2013-02-08 01:19:00,31.8,30.0,29.93,NW,315,0.0,0.0,93,0.00,CLR,,0.00,WeatherDisplay:10.37,2013-02-08 09:19:00,
2013-02-08 01:24:00,32.0,30.2,29.93,NW,315,0.0,0.0,93,0.00,CLR,,0.00,WeatherDisplay:10.37,2013-02-08 09:24:00,
2013-02-08 01:29:00,31.8,30.0,29.93,NW,315,0.0,0.0,93,0.00,CLR,,0.00,WeatherDisplay:10.37,2013-02-08 09:29:00,
2013-02-08 01:34:00,31.8,30.0,29.93,NW,315,0.0,0.0,93,0.00,CLR,,0.00,WeatherDisplay:10.37,2013-02-08 09:34:00,
2013-02-08 01:39:00,31.6,29.8,29.93,NW,315,0.0,0.0,93,0.00,CLR,,0.00,WeatherDisplay:10.37,2013-02-08 09:39:00,
2013-02-08 01:44:00,31.5,29.7,29.93,NW,315,0.0,0.0,93,0.00,CLR,,0.00,WeatherDisplay:10.37,2013-02-08 09:44:00,
2013-02-08 01:49:00,31.3,29.5,29.93,NW,315,0.0,0.0,93,0.00,CLR,,0.00,WeatherDisplay:10.37,2013-02-08 09:49:00,
2013-02-08 01:54:00,31.3,29.5,29.93,NW,315,0.0,0.0,93,0.00,CLR,,0.00,WeatherDisplay:10.37,2013-02-08 09:54:00,
2013-02-08 01:59:00,31.3,29.5,29.93,NW,315,0.0,0.0,93,0.00,CLR,,0.00,WeatherDisplay:10.37,2013-02-08 09:59:00,
2013-02-08 02:04:00,31.1,29.6,29.94,NW,315,0.0,0.0,94,0.00,CLR,,0.00,WeatherDisplay:10.37,2013-02-08 10:04:00,
2013-02-08 02:09:00,30.9,29.4,29.94,NNW,338,0.0,0.0,94,0.00,CLR,,0.00,WeatherDisplay:10.37,2013-02-08 10:09:00,
2013-02-08 02:14:00,30.9,29.4,29.94,NNW,338,0.0,0.0,94,0.00,CLR,,0.00,WeatherDisplay:10.37,2013-02-08 10:14:00,
2013-02-08 02:19:00,30.9,29.4,29.94,North,0,0.0,0.0,94,0.00,CLR,,0.00,WeatherDisplay:10.37,2013-02-08 10:19:00,
2013-02-08 02:24:00,30.9,29.4,29.94,North,0,0.0,0.0,94,0.00,CLR,,0.00,WeatherDisplay:10.37,2013-02-08 10:24:00,
2013-02-08 02:29:00,30.9,29.4,29.94,North,0,0.0,0.0,94,0.00,CLR,,0.00,WeatherDisplay:10.37,2013-02-08 10:29:00,
2013-02-08 02:34:00,30.7,29.0,29.95,North,0,0.0,0.0,93,0.00,CLR,,0.00,WeatherDisplay:10.37,2013-02-08 10:34:00,
2013-02-08 02:39:00,30.7,29.0,29.94,North,0,0.0,0.0,93,0.00,CLR,,0.00,WeatherDisplay:10.37,2013-02-08 10:39:00,
2013-02-08 02:44:00,30.4,28.6,29.94,North,0,0.0,0.0,93,0.00,CLR,,0.00,WeatherDisplay:10.37,2013-02-08 10:44:00,
2013-02-08 02:49:00,30.4,28.6,29.94,North,0,0.0,0.0,93,0.00,CLR,,0.00,WeatherDisplay:10.37,2013-02-08 10:49:00,
2013-02-08 02:54:00,30.2,28.4,29.95,North,0,0.0,0.0,93,0.00,CLR,,0.00,WeatherDisplay:10.37,2013-02-08 10:54:00,
2013-02-08 02:59:00,30.0,28.2,29.95,North,0,0.0,0.0,93,0.00,CLR,,0.00,WeatherDisplay:10.37,2013-02-08 10:59:00,
2013-02-08 03:04:00,30.0,28.2,29.94,North,0,0.0,0.0,93,0.00,CLR,,0.00,WeatherDisplay:10.37,2013-02-08 11:04:00,
2013-02-08 03:09:00,30.0,28.2,29.95,North,0,0.0,0.0,93,0.00,CLR,,0.00,WeatherDisplay:10.37,2013-02-08 11:09:00,
2013-02-08 03:14:00,29.8,28.1,29.95,North,0,0.0,0.0,93,0.00,CLR,,0.00,WeatherDisplay:10.37,2013-02-08 11:14:00,
2013-02-08 03:19:00,29.8,28.1,29.95,North,0,0.0,0.0,93,0.00,CLR,,0.00,WeatherDisplay:10.37,2013-02-08 11:19:00,
2013-02-08 03:24:00,29.8,28.1,29.95,North,0,0.0,0.0,93,0.00,CLR,,0.00,WeatherDisplay:10.37,2013-02-08 11:24:00,
2013-02-08 03:29:00,29.7,27.9,29.94,North,0,0.0,0.0,93,0.00,CLR,,0.00,WeatherDisplay:10.37,2013-02-08 11:29:00,
2013-02-08 03:34:00,29.7,27.9,29.94,North,0,0.0,0.0,93,0.00,CLR,,0.00,WeatherDisplay:10.37,2013-02-08 11:34:00,
2013-02-08 03:39:00,29.5,28.0,29.95,North,0,0.0,0.0,94,0.00,CLR,,0.00,WeatherDisplay:10.37,2013-02-08 11:39:00,
2013-02-08 03:44:00,29.5,28.0,29.95,North,0,0.0,0.0,94,0.00,CLR,,0.00,WeatherDisplay:10.37,2013-02-08 11:44:00,
2013-02-08 03:49:00,29.5,28.0,29.95,North,0,0.0,0.0,94,0.00,CLR,,0.00,WeatherDisplay:10.37,2013-02-08 11:49:00,
2013-02-08 03:54:00,29.5,28.0,29.95,North,0,0.0,0.0,94,0.00,CLR,,0.00,WeatherDisplay:10.37,2013-02-08 11:54:00,
2013-02-08 03:59:00,29.7,28.1,29.95,North,0,0.0,0.0,94,0.00,CLR,,0.00,WeatherDisplay:10.37,2013-02-08 11:59:00,
2013-02-08 04:04:00,29.8,28.3,29.95,North,0,0.0,0.0,94,0.00,CLR,,0.00,WeatherDisplay:10.37,2013-02-08 12:04:00,
2013-02-08 04:09:00,30.0,28.5,29.95,North,0,0.0,0.0,94,0.00,CLR,,0.00,WeatherDisplay:10.37,2013-02-08 12:09:00,
2013-02-08 04:14:00,30.2,28.7,29.96,North,0,0.0,0.0,94,0.00,CLR,,0.00,WeatherDisplay:10.37,2013-02-08 12:14:00,
2013-02-08 04:19:00,30.4,28.9,29.96,North,0,0.0,0.0,94,0.00,CLR,,0.00,WeatherDisplay:10.37,2013-02-08 12:19:00,
2013-02-08 04:24:00,30.6,29.0,29.96,North,0,0.0,0.0,94,0.00,CLR,,0.00,WeatherDisplay:10.37,2013-02-08 12:24:00,
2013-02-08 04:29:00,30.6,29.0,29.96,North,0,0.0,0.0,94,0.00,CLR,,0.00,WeatherDisplay:10.37,2013-02-08 12:29:00,
2013-02-08 04:34:00,30.4,28.9,29.96,North,0,0.0,0.0,94,0.00,CLR,,0.00,WeatherDisplay:10.37,2013-02-08 12:34:00,
2013-02-08 04:39:00,30.2,28.7,29.97,North,0,0.0,0.0,94,0.00,CLR,,0.00,WeatherDisplay:10.37,2013-02-08 12:39:00,
2013-02-08 04:44:00,30.0,28.5,29.96,North,0,0.0,0.0,94,0.00,CLR,,0.00,WeatherDisplay:10.37,2013-02-08 12:44:00,
2013-02-08 04:49:00,30.0,28.5,29.97,North,0,0.0,0.0,94,0.00,CLR,,0.00,WeatherDisplay:10.37,2013-02-08 12:49:00,
2013-02-08 04:54:00,29.8,28.3,29.97,North,0,0.0,0.0,94,0.00,CLR,,0.00,WeatherDisplay:10.37,2013-02-08 12:54:00,
2013-02-08 04:59:00,29.8,28.3,29.97,North,0,0.0,0.0,94,0.00,CLR,,0.00,WeatherDisplay:10.37,2013-02-08 12:59:00,
2013-02-08 05:04:00,29.7,28.1,29.97,North,0,0.0,0.0,94,0.00,CLR,,0.00,WeatherDisplay:10.37,2013-02-08 13:04:00,
2013-02-08 05:09:00,29.7,28.1,29.98,North,0,0.0,0.0,94,0.00,CLR,,0.00,WeatherDisplay:10.37,2013-02-08 13:09:00,
2013-02-08 05:15:00,30.0,28.5,29.98,North,0,0.0,0.0,94,0.00,CLR,,0.00,WeatherDisplay:10.37,2013-02-08 13:15:00,
2013-02-08 05:20:00,30.0,28.5,29.97,North,0,0.0,0.0,94,0.00,CLR,,0.00,WeatherDisplay:10.37,2013-02-08 13:20:00,
2013-02-08 05:25:00,30.2,28.7,29.98,North,0,0.0,0.0,94,0.00,CLR,,0.00,WeatherDisplay:10.37,2013-02-08 13:25:00,
2013-02-08 05:30:00,30.4,28.9,29.98,North,0,0.0,0.0,94,0.00,CLR,,0.00,WeatherDisplay:10.37,2013-02-08 13:30:00,
2013-02-08 05:35:00,30.6,29.0,29.98,North,0,0.0,0.0,94,0.00,CLR,,0.00,WeatherDisplay:10.37,2013-02-08 13:35:00,
2013-02-08 05:40:00,30.6,29.0,29.98,North,0,0.0,0.0,94,0.00,CLR,,0.00,WeatherDisplay:10.37,2013-02-08 13:40:00,
2013-02-08 05:45:00,30.7,29.2,29.98,North,0,0.0,0.0,94,0.00,CLR,,0.00,WeatherDisplay:10.37,2013-02-08 13:45:00,
2013-02-08 05:50:00,30.7,29.2,29.98,North,0,0.0,0.0,94,0.00,CLR,,0.00,WeatherDisplay:10.37,2013-02-08 13:50:00,
2013-02-08 05:55:00,30.9,29.4,29.98,North,0,0.0,0.0,94,0.00,CLR,,0.00,WeatherDisplay:10.37,2013-02-08 13:55:00,
2013-02-08 06:00:00,30.9,29.4,29.98,North,0,0.0,0.0,94,0.00,CLR,,0.00,WeatherDisplay:10.37,2013-02-08 14:00:00,
2013-02-08 06:05:00,30.9,29.4,29.98,North,0,0.0,0.0,94,0.00,CLR,,0.00,WeatherDisplay:10.37,2013-02-08 14:05:00,
2013-02-08 06:10:00,31.1,29.6,29.98,North,0,0.0,0.0,94,0.00,CLR,,0.00,WeatherDisplay:10.37,2013-02-08 14:10:00,
2013-02-08 06:15:00,31.1,29.6,29.98,NNE,22,0.0,0.0,94,0.00,CLR,,0.00,WeatherDisplay:10.37,2013-02-08 14:15:00,
2013-02-08 06:20:00,30.9,29.4,29.98,NNE,22,0.0,0.0,94,0.00,CLR,,0.00,WeatherDisplay:10.37,2013-02-08 14:20:00,
2013-02-08 06:25:00,30.9,29.4,29.98,NNE,22,0.0,0.0,94,0.00,CLR,,0.00,WeatherDisplay:10.37,2013-02-08 14:25:00,
2013-02-08 06:30:00,30.9,29.4,29.99,NNE,22,0.0,0.0,94,0.00,CLR,,0.00,WeatherDisplay:10.37,2013-02-08 14:30:00,
2013-02-08 06:35:00,30.7,29.2,29.99,NNW,338,0.0,0.0,94,0.00,CLR,,0.00,WeatherDisplay:10.37,2013-02-08 14:35:00,
2013-02-08 06:40:00,30.7,29.2,29.98,NNW,338,0.0,0.0,94,0.00,CLR,,0.00,WeatherDisplay:10.37,2013-02-08 14:40:00,
2013-02-08 06:46:00,30.7,29.2,29.98,NNW,338,0.0,0.0,94,0.00,CLR,,0.00,WeatherDisplay:10.37,2013-02-08 14:46:00,
2013-02-08 06:51:00,30.7,29.2,29.99,NNW,338,0.0,0.0,94,0.00,CLR,,0.00,WeatherDisplay:10.37,2013-02-08 14:51:00,
2013-02-08 06:56:00,30.7,29.2,29.98,NNW,338,0.0,0.0,94,0.00,CLR,,0.00,WeatherDisplay:10.37,2013-02-08 14:56:00,
2013-02-08 07:01:00,30.6,29.0,29.98,NNW,338,0.0,0.0,94,0.00,CLR,,0.00,WeatherDisplay:10.37,2013-02-08 15:01:00,
2013-02-08 07:06:00,30.6,29.0,29.98,NNW,338,0.0,0.0,94,0.00,CLR,,0.00,WeatherDisplay:10.37,2013-02-08 15:06:00,
2013-02-08 07:11:00,30.4,28.9,29.98,NNW,338,0.0,0.0,94,0.00,CLR,,0.00,WeatherDisplay:10.37,2013-02-08 15:11:00,
2013-02-08 07:16:00,30.2,28.7,29.98,NNW,338,0.0,0.0,94,0.00,CLR,,0.00,WeatherDisplay:10.37,2013-02-08 15:16:00,
2013-02-08 07:21:00,30.0,28.5,29.98,NNW,338,0.0,0.0,94,0.00,CLR,,0.00,WeatherDisplay:10.37,2013-02-08 15:21:00,
2013-02-08 07:26:00,30.0,28.5,29.99,NNW,338,0.0,0.0,94,0.00,CLR,,0.00,WeatherDisplay:10.37,2013-02-08 15:26:00,
2013-02-08 07:31:00,30.0,28.5,29.99,NNW,338,0.0,0.0,94,0.00,CLR,,0.00,WeatherDisplay:10.37,2013-02-08 15:31:00,
2013-02-08 07:37:00,30.2,28.9,30.00,NNW,338,0.0,0.0,95,0.00,CLR,,0.00,WeatherDisplay:10.37,2013-02-08 15:37:00,
2013-02-08 07:42:00,30.2,28.9,29.99,NNW,338,0.0,0.0,95,0.00,CLR,,0.00,WeatherDisplay:10.37,2013-02-08 15:42:00,
2013-02-08 07:47:00,30.0,28.5,30.00,NNW,338,0.0,0.0,94,0.00,CLR,,0.00,WeatherDisplay:10.37,2013-02-08 15:47:00,
2013-02-08 07:52:00,30.0,28.8,30.00,NNW,338,0.0,0.0,95,0.00,CLR,,0.00,WeatherDisplay:10.37,2013-02-08 15:52:00,
2013-02-08 07:57:00,30.0,28.8,30.00,NNW,338,0.0,0.0,95,0.00,CLR,,0.00,WeatherDisplay:10.37,2013-02-08 15:57:00,
2013-02-08 08:03:00,30.0,28.8,30.01,NNW,338,0.0,0.0,95,0.00,CLR,,0.00,WeatherDisplay:10.37,2013-02-08 16:03:00,
2013-02-08 08:08:00,30.0,28.8,30.01,NNW,338,0.0,0.0,95,0.00,CLR,,0.00,WeatherDisplay:10.37,2013-02-08 16:08:00,
2013-02-08 08:13:00,30.0,28.8,30.01,NNW,338,0.0,0.0,95,0.00,CLR,,0.00,WeatherDisplay:10.37,2013-02-08 16:13:00,
2013-02-08 08:18:00,30.0,28.8,30.01,NNW,338,0.0,0.0,95,0.00,CLR,,0.00,WeatherDisplay:10.37,2013-02-08 16:18:00,
2013-02-08 08:23:00,30.4,29.1,30.01,NNW,338,0.0,0.0,95,0.00,CLR,,0.00,WeatherDisplay:10.37,2013-02-08 16:23:00,
2013-02-08 08:28:00,30.7,29.5,30.01,NNW,338,0.0,0.0,95,0.00,CLR,,0.00,WeatherDisplay:10.37,2013-02-08 16:28:00,
2013-02-08 08:33:00,31.1,29.8,30.01,NNW,338,0.0,0.0,95,0.00,CLR,,0.00,WeatherDisplay:10.37,2013-02-08 16:33:00,
2013-02-08 08:38:00,31.3,30.0,30.01,NNW,338,0.0,0.0,95,0.00,CLR,,0.00,WeatherDisplay:10.37,2013-02-08 16:38:00,
2013-02-08 08:43:00,31.8,30.6,30.01,NNW,338,0.0,0.0,95,0.00,CLR,,0.00,WeatherDisplay:10.37,2013-02-08 16:43:00,
2013-02-08 08:48:00,32.2,30.9,30.02,NNW,338,0.0,0.0,95,0.00,CLR,,0.00,WeatherDisplay:10.37,2013-02-08 16:48:00,
2013-02-08 08:53:00,32.5,31.3,30.01,NNW,338,0.0,0.0,95,0.00,CLR,,0.00,WeatherDisplay:10.37,2013-02-08 16:53:00,
2013-02-08 08:58:00,32.9,31.6,30.01,NNW,338,0.0,0.0,95,0.00,CLR,,0.00,WeatherDisplay:10.37,2013-02-08 16:58:00,
2013-02-08 09:03:00,33.1,31.8,30.02,NNW,338,0.0,0.0,95,0.00,CLR,,0.00,WeatherDisplay:10.37,2013-02-08 17:03:00,
2013-02-08 09:08:00,33.3,32.0,30.01,NNW,338,0.0,0.0,95,0.00,CLR,,0.00,WeatherDisplay:10.37,2013-02-08 17:08:00,
2013-02-08 09:13:00,33.6,32.3,30.01,NNW,338,0.0,0.0,95,0.00,CLR,,0.00,WeatherDisplay:10.37,2013-02-08 17:13:00,
2013-02-08 09:18:00,34.0,32.7,30.01,NNW,338,0.0,0.0,95,0.00,CLR,,0.00,WeatherDisplay:10.37,2013-02-08 17:18:00,
2013-02-08 09:23:00,34.3,33.1,30.01,NNW,338,0.0,0.0,95,0.00,CLR,,0.00,WeatherDisplay:10.37,2013-02-08 17:23:00,
2013-02-08 09:28:00,34.3,33.1,30.01,NNW,338,0.0,0.0,95,0.00,CLR,,0.00,WeatherDisplay:10.37,2013-02-08 17:28:00,
2013-02-08 09:33:00,34.7,33.4,30.01,NNW,338,0.0,0.0,95,0.00,CLR,,0.00,WeatherDisplay:10.37,2013-02-08 17:33:00,
2013-02-08 09:39:00,35.2,34.0,30.02,NNW,338,0.0,0.0,95,0.00,CLR,,0.00,WeatherDisplay:10.37,2013-02-08 17:39:00,
2013-02-08 09:44:00,35.4,34.1,30.02,NNW,338,0.0,0.0,95,0.00,CLR,,0.00,WeatherDisplay:10.37,2013-02-08 17:44:00,
2013-02-08 09:49:00,35.8,34.5,30.02,NNW,338,0.0,0.0,95,0.00,CLR,,0.00,WeatherDisplay:10.37,2013-02-08 17:49:00,
2013-02-08 09:54:00,36.0,34.7,30.02,NNW,338,0.0,0.0,95,0.00,CLR,,0.00,WeatherDisplay:10.37,2013-02-08 17:54:00,
2013-02-08 09:59:00,36.3,34.8,30.03,NNW,338,0.0,0.0,94,0.00,CLR,,0.00,WeatherDisplay:10.37,2013-02-08 17:59:00,
2013-02-08 10:04:00,36.7,35.1,30.02,NNW,338,0.0,0.0,94,0.00,CLR,,0.00,WeatherDisplay:10.37,2013-02-08 18:04:00,
2013-02-08 10:09:00,36.9,35.3,30.02,NNW,338,0.0,0.0,94,0.00,CLR,,0.00,WeatherDisplay:10.37,2013-02-08 18:09:00,
2013-02-08 10:14:00,37.2,35.7,30.02,NNW,338,0.0,0.0,94,0.00,CLR,,0.00,WeatherDisplay:10.37,2013-02-08 18:14:00,
2013-02-08 10:19:00,37.8,36.5,30.03,NNW,338,0.0,0.0,95,0.00,CLR,,0.00,WeatherDisplay:10.37,2013-02-08 18:19:00,
2013-02-08 10:25:00,38.1,36.5,30.02,NNW,338,0.0,0.0,94,0.00,CLR,,0.00,WeatherDisplay:10.37,2013-02-08 18:25:00,
2013-02-08 10:31:00,38.5,36.9,30.03,NNW,338,0.0,0.0,94,0.00,CLR,,0.00,WeatherDisplay:10.37,2013-02-08 18:31:00,
2013-02-08 10:37:00,39.0,37.4,30.03,NNW,338,0.0,0.0,94,0.00,CLR,,0.00,WeatherDisplay:10.37,2013-02-08 18:37:00,
2013-02-08 10:43:00,39.4,37.8,30.03,NNW,338,0.0,0.0,94,0.00,CLR,,0.00,WeatherDisplay:10.37,2013-02-08 18:43:00,
2013-02-08 10:48:00,39.7,38.2,30.03,NNW,338,0.0,0.0,94,0.00,CLR,,0.00,WeatherDisplay:10.37,2013-02-08 18:48:00,
2013-02-08 10:53:00,39.9,38.3,30.03,NNW,338,0.0,0.0,94,0.00,CLR,,0.00,WeatherDisplay:10.37,2013-02-08 18:53:00,
2013-02-08 10:59:00,40.6,38.8,30.03,NNW,338,0.0,0.0,93,0.00,CLR,,0.00,WeatherDisplay:10.37,2013-02-08 18:59:00,
2013-02-08 11:05:00,41.2,39.3,30.03,NNW,338,0.0,0.0,93,0.00,CLR,,0.00,WeatherDisplay:10.37,2013-02-08 19:05:00,
2013-02-08 11:10:00,41.4,39.5,30.03,NNW,338,0.0,0.0,93,0.00,CLR,,0.00,WeatherDisplay:10.37,2013-02-08 19:10:00,
2013-02-08 11:15:00,41.4,39.5,30.03,NNW,338,0.0,0.0,93,0.00,CLR,,0.00,WeatherDisplay:10.37,2013-02-08 19:15:00,
2013-02-08 11:20:00,41.5,39.7,30.03,NNW,338,0.0,0.0,93,0.00,CLR,,0.00,WeatherDisplay:10.37,2013-02-08 19:20:00,
2013-02-08 11:25:00,42.1,40.2,30.03,WNW,292,0.0,0.0,93,0.00,CLR,,0.00,WeatherDisplay:10.37,2013-02-08 19:25:00,
2013-02-08 11:30:00,43.0,40.5,30.02,West,270,0.0,0.0,91,0.00,CLR,,0.00,WeatherDisplay:10.37,2013-02-08 19:30:00,
2013-02-08 11:36:00,43.3,40.6,30.02,West,270,0.0,0.0,90,0.00,CLR,,0.00,WeatherDisplay:10.37,2013-02-08 19:36:00,
2013-02-08 11:41:00,43.5,40.8,30.02,West,270,0.0,0.0,90,0.00,CLR,,0.00,WeatherDisplay:10.37,2013-02-08 19:41:00,
2013-02-08 11:46:00,43.5,40.8,30.02,West,270,0.0,0.0,90,0.00,CLR,,0.00,WeatherDisplay:10.37,2013-02-08 19:46:00,
2013-02-08 11:51:00,43.5,40.5,30.03,West,270,0.0,0.0,89,0.00,CLR,,0.00,WeatherDisplay:10.37,2013-02-08 19:51:00,
2013-02-08 11:56:00,43.7,41.0,30.02,West,270,0.0,0.0,90,0.00,CLR,,0.00,WeatherDisplay:10.37,2013-02-08 19:56:00,
2013-02-08 12:01:00,43.9,40.8,30.02,West,270,0.0,0.0,89,0.00,CLR,,0.00,WeatherDisplay:10.37,2013-02-08 20:01:00,
2013-02-08 12:06:00,44.2,41.2,30.02,West,270,0.0,0.0,89,0.00,CLR,,0.00,WeatherDisplay:10.37,2013-02-08 20:06:00,
2013-02-08 12:11:00,44.4,40.8,30.01,WNW,292,5.8,5.8,87,0.00,CLR,,0.00,WeatherDisplay:10.37,2013-02-08 20:11:00,
2013-02-08 12:16:00,44.6,40.7,30.01,WNW,292,2.3,2.3,86,0.00,CLR,,0.00,WeatherDisplay:10.37,2013-02-08 20:16:00,
2013-02-08 12:21:00,45.0,40.7,30.01,WNW,292,0.0,0.0,85,0.00,CLR,,0.00,WeatherDisplay:10.37,2013-02-08 20:21:00,
2013-02-08 12:26:00,45.1,40.9,30.01,WNW,292,0.0,0.0,85,0.00,CLR,,0.00,WeatherDisplay:10.37,2013-02-08 20:26:00,
2013-02-08 12:31:00,45.1,40.6,30.01,WNW,292,0.0,0.0,84,0.00,CLR,,0.00,WeatherDisplay:10.37,2013-02-08 20:31:00,
2013-02-08 12:36:00,45.3,40.5,30.01,ESE,112,1.2,1.4,83,0.00,CLR,,0.00,WeatherDisplay:10.37,2013-02-08 20:36:00,
2013-02-08 12:41:00,45.5,40.6,30.01,North,0,1.2,1.2,83,0.00,CLR,,0.00,WeatherDisplay:10.37,2013-02-08 20:41:00,
2013-02-08 12:46:00,45.3,39.8,30.01,North,0,0.0,0.0,81,0.00,CLR,,0.00,WeatherDisplay:10.37,2013-02-08 20:46:00,
2013-02-08 12:51:00,45.3,39.8,30.00,NNW,338,0.0,0.0,81,0.00,CLR,,0.00,WeatherDisplay:10.37,2013-02-08 20:51:00,
2013-02-08 12:56:00,45.5,40.0,30.01,WNW,292,0.0,0.0,81,0.00,CLR,,0.00,WeatherDisplay:10.37,2013-02-08 20:56:00,
2013-02-08 13:01:00,45.5,39.7,30.01,WNW,292,0.0,0.0,80,0.00,CLR,,0.00,WeatherDisplay:10.37,2013-02-08 21:01:00,
2013-02-08 13:06:00,45.1,39.0,30.01,NW,315,0.0,0.0,79,0.00,CLR,,0.00,WeatherDisplay:10.37,2013-02-08 21:06:00,
2013-02-08 13:11:00,45.1,39.0,30.01,NW,315,1.2,1.2,79,0.00,CLR,,0.00,WeatherDisplay:10.37,2013-02-08 21:11:00,
2013-02-08 13:16:00,45.1,39.0,30.01,NNW,338,0.0,0.0,79,0.00,CLR,,0.00,WeatherDisplay:10.37,2013-02-08 21:16:00,
2013-02-08 13:21:00,45.1,39.0,30.01,NNE,22,0.0,0.0,79,0.00,CLR,,0.00,WeatherDisplay:10.37,2013-02-08 21:21:00,
2013-02-08 13:26:00,45.0,38.8,30.01,West,270,0.0,0.0,79,0.00,CLR,,0.00,WeatherDisplay:10.37,2013-02-08 21:26:00,
2013-02-08 13:31:00,45.0,38.8,30.00,North,0,0.0,0.0,79,0.00,CLR,,0.00,WeatherDisplay:10.37,2013-02-08 21:31:00,
2013-02-08 13:36:00,44.8,38.7,30.00,North,0,0.0,0.0,79,0.00,CLR,,0.00,WeatherDisplay:10.37,2013-02-08 21:36:00,
2013-02-08 13:41:00,44.6,38.5,30.00,West,270,1.2,1.2,79,0.00,CLR,,0.00,WeatherDisplay:10.37,2013-02-08 21:41:00,
2013-02-08 13:46:00,44.4,38.3,30.00,WNW,292,0.0,0.0,79,0.00,CLR,,0.00,WeatherDisplay:10.37,2013-02-08 21:46:00,
2013-02-08 13:51:00,44.4,38.3,30.01,West,270,8.1,8.1,79,0.00,CLR,,0.00,WeatherDisplay:10.37,2013-02-08 21:51:00,
2013-02-08 13:56:00,44.6,38.5,30.01,NW,315,0.0,0.0,79,0.00,CLR,,0.00,WeatherDisplay:10.37,2013-02-08 21:56:00,
2013-02-08 14:01:00,44.8,38.7,30.00,WNW,292,0.0,0.0,79,0.00,CLR,,0.00,WeatherDisplay:10.37,2013-02-08 22:01:00,
2013-02-08 14:07:00,44.8,38.7,30.01,NW,315,0.0,0.0,79,0.00,CLR,,0.00,WeatherDisplay:10.37,2013-02-08 22:07:00,
2013-02-08 14:12:00,44.8,39.0,30.01,NW,315,0.0,0.0,80,0.00,CLR,,0.00,WeatherDisplay:10.37,2013-02-08 22:12:00,
2013-02-08 14:17:00,44.8,39.0,30.00,NW,315,0.0,0.0,80,0.00,CLR,,0.00,WeatherDisplay:10.37,2013-02-08 22:17:00,
2013-02-08 14:22:00,44.8,39.0,30.01,North,0,0.0,0.0,80,0.00,CLR,,0.00,WeatherDisplay:10.37,2013-02-08 22:22:00,
2013-02-08 14:27:00,44.8,38.7,30.01,NNW,338,0.0,0.0,79,0.00,CLR,,0.00,WeatherDisplay:10.37,2013-02-08 22:27:00,
2013-02-08 14:32:00,44.4,38.6,30.00,NNW,338,0.0,0.0,80,0.00,CLR,,0.00,WeatherDisplay:10.37,2013-02-08 22:32:00,
2013-02-08 14:38:00,44.4,38.6,30.01,NNE,22,0.0,0.0,80,0.00,CLR,,0.00,WeatherDisplay:10.37,2013-02-08 22:38:00,
2013-02-08 14:44:00,44.4,38.3,30.01,NNE,22,0.0,0.0,79,0.00,CLR,,0.00,WeatherDisplay:10.37,2013-02-08 22:44:00,
2013-02-08 14:49:00,44.4,38.3,30.01,NNW,338,0.0,0.0,79,0.00,CLR,,0.00,WeatherDisplay:10.37,2013-02-08 22:49:00,
2013-02-08 14:54:00,44.4,38.3,30.01,NNW,338,0.0,0.0,79,0.00,CLR,,0.00,WeatherDisplay:10.37,2013-02-08 22:54:00,
2013-02-08 14:59:00,44.8,39.0,30.01,NNW,338,0.0,0.0,80,0.00,CLR,,0.00,WeatherDisplay:10.37,2013-02-08 22:59:00,
2013-02-08 15:05:00,44.8,38.7,30.01,NNW,338,0.0,0.0,79,0.00,CLR,,0.00,WeatherDisplay:10.37,2013-02-08 23:05:00,
2013-02-08 15:10:00,45.0,38.8,30.01,NNW,338,0.0,0.0,79,0.00,CLR,,0.00,WeatherDisplay:10.37,2013-02-08 23:10:00,
2013-02-08 15:16:00,45.0,38.2,30.01,NNE,22,1.2,0.0,77,0.00,CLR,,0.00,WeatherDisplay:10.37,2013-02-08 23:16:00,
2013-02-08 15:21:00,44.8,38.3,30.01,ENE,68,0.0,0.0,78,0.00,CLR,,0.00,WeatherDisplay:10.37,2013-02-08 23:21:00,
2013-02-08 15:26:00,44.8,38.3,30.01,ENE,68,0.0,0.0,78,0.00,CLR,,0.00,WeatherDisplay:10.37,2013-02-08 23:26:00,
2013-02-08 15:31:00,44.8,38.7,30.01,ENE,68,0.0,0.0,79,0.00,CLR,,0.00,WeatherDisplay:10.37,2013-02-08 23:31:00,
2013-02-08 15:36:00,44.6,38.2,30.01,ENE,68,0.0,0.0,78,0.00,CLR,,0.00,WeatherDisplay:10.37,2013-02-08 23:36:00,
2013-02-08 15:41:00,44.4,38.3,30.01,ENE,68,0.0,0.0,79,0.00,CLR,,0.00,WeatherDisplay:10.37,2013-02-08 23:41:00,
2013-02-08 15:46:00,44.2,38.1,30.01,ENE,68,0.0,0.0,79,0.00,CLR,,0.00,WeatherDisplay:10.37,2013-02-08 23:46:00,
2013-02-08 15:51:00,44.1,38.0,30.01,ENE,68,0.0,0.0,79,0.00,CLR,,0.00,WeatherDisplay:10.37,2013-02-08 23:51:00,
2013-02-08 15:56:00,43.9,37.8,30.01,ENE,68,0.0,0.0,79,0.00,CLR,,0.00,WeatherDisplay:10.37,2013-02-08 23:56:00,
2013-02-08 16:01:00,43.7,37.9,30.01,ENE,68,0.0,0.0,80,0.00,CLR,,0.00,WeatherDisplay:10.37,2013-02-09 00:01:00,
2013-02-08 16:06:00,43.5,37.8,30.01,ENE,68,0.0,0.0,80,0.00,CLR,,0.00,WeatherDisplay:10.37,2013-02-09 00:06:00,
2013-02-08 16:11:00,43.5,37.8,30.01,ENE,68,0.0,0.0,80,0.00,CLR,,0.00,WeatherDisplay:10.37,2013-02-09 00:11:00,
2013-02-08 16:16:00,43.3,37.6,30.01,ENE,68,0.0,0.0,80,0.00,CLR,,0.00,WeatherDisplay:10.37,2013-02-09 00:16:00,
2013-02-08 16:21:00,43.2,37.4,30.01,ENE,68,0.0,0.0,80,0.00,CLR,,0.00,WeatherDisplay:10.37,2013-02-09 00:21:00,
2013-02-08 16:26:00,43.0,37.2,30.01,ENE,68,0.0,0.0,80,0.00,CLR,,0.00,WeatherDisplay:10.37,2013-02-09 00:26:00,
2013-02-08 16:31:00,42.8,37.1,30.01,ENE,68,0.0,0.0,80,0.00,CLR,,0.00,WeatherDisplay:10.37,2013-02-09 00:31:00,
2013-02-08 16:36:00,42.6,36.9,30.01,ENE,68,0.0,0.0,80,0.00,CLR,,0.00,WeatherDisplay:10.37,2013-02-09 00:36:00,
2013-02-08 16:41:00,42.6,36.9,30.01,ENE,68,0.0,0.0,80,0.00,CLR,,0.00,WeatherDisplay:10.37,2013-02-09 00:41:00,
2013-02-08 16:46:00,42.4,37.0,30.01,ENE,68,0.0,0.0,81,0.00,CLR,,0.00,WeatherDisplay:10.37,2013-02-09 00:46:00,
2013-02-08 16:51:00,42.4,37.0,30.01,ENE,68,0.0,0.0,81,0.00,CLR,,0.00,WeatherDisplay:10.37,2013-02-09 00:51:00,
2013-02-08 16:56:00,42.4,37.0,30.01,ENE,68,0.0,0.0,81,0.00,CLR,,0.00,WeatherDisplay:10.37,2013-02-09 00:56:00,
2013-02-08 17:01:00,42.3,36.8,30.01,ENE,68,0.0,0.0,81,0.00,CLR,,0.00,WeatherDisplay:10.37,2013-02-09 01:01:00,
2013-02-08 17:06:00,42.1,36.7,30.01,ENE,68,0.0,0.0,81,0.00,CLR,,0.00,WeatherDisplay:10.37,2013-02-09 01:06:00,
2013-02-08 17:11:00,42.1,36.7,30.01,ENE,68,0.0,0.0,81,0.00,CLR,,0.00,WeatherDisplay:10.37,2013-02-09 01:11:00,
2013-02-08 17:16:00,42.1,37.0,30.01,ENE,68,0.0,0.0,82,0.00,CLR,,0.00,WeatherDisplay:10.37,2013-02-09 01:16:00,
2013-02-08 17:21:00,41.7,36.6,30.00,ENE,68,0.0,0.0,82,0.00,CLR,,0.00,WeatherDisplay:10.37,2013-02-09 01:21:00,
2013-02-08 17:26:00,41.7,36.6,30.01,ENE,68,0.0,0.0,82,0.00,CLR,,0.00,WeatherDisplay:10.37,2013-02-09 01:26:00,
2013-02-08 17:31:00,41.5,36.8,30.01,ENE,68,0.0,0.0,83,0.00,CLR,,0.00,WeatherDisplay:10.37,2013-02-09 01:31:00,
2013-02-08 17:36:00,41.4,36.6,30.00,ENE,68,0.0,0.0,83,0.00,CLR,,0.00,WeatherDisplay:10.37,2013-02-09 01:36:00,
2013-02-08 17:41:00,41.2,36.4,30.00,ENE,68,0.0,0.0,83,0.00,CLR,,0.00,WeatherDisplay:10.37,2013-02-09 01:41:00,
2013-02-08 17:46:00,41.0,36.2,30.00,ENE,68,0.0,0.0,83,0.00,CLR,,0.00,WeatherDisplay:10.37,2013-02-09 01:46:00,
2013-02-08 17:51:00,40.8,36.4,30.00,ENE,68,0.0,0.0,84,0.00,CLR,,0.00,WeatherDisplay:10.37,2013-02-09 01:51:00,
2013-02-08 17:57:00,40.8,36.4,30.00,ENE,68,0.0,0.0,84,0.00,CLR,,0.00,WeatherDisplay:10.37,2013-02-09 01:57:00,
2013-02-08 18:02:00,40.5,36.0,30.01,ENE,68,0.0,0.0,84,0.00,CLR,,0.00,WeatherDisplay:10.37,2013-02-09 02:02:00,
2013-02-08 18:07:00,40.3,35.8,30.01,ENE,68,0.0,0.0,84,0.00,CLR,,0.00,WeatherDisplay:10.37,2013-02-09 02:07:00,
2013-02-08 18:12:00,39.9,35.5,30.00,ENE,68,0.0,0.0,84,0.00,CLR,,0.00,WeatherDisplay:10.37,2013-02-09 02:12:00,
2013-02-08 18:17:00,39.6,35.4,30.01,ENE,68,0.0,0.0,85,0.00,CLR,,0.00,WeatherDisplay:10.37,2013-02-09 02:17:00,
2013-02-08 18:22:00,39.4,35.2,30.00,ENE,68,0.0,0.0,85,0.00,CLR,,0.00,WeatherDisplay:10.37,2013-02-09 02:22:00,
2013-02-08 18:27:00,39.0,34.9,30.01,ENE,68,0.0,0.0,85,0.00,CLR,,0.00,WeatherDisplay:10.37,2013-02-09 02:27:00,
2013-02-08 18:32:00,39.0,34.9,30.00,ENE,68,0.0,0.0,85,0.00,CLR,,0.00,WeatherDisplay:10.37,2013-02-09 02:32:00,
2013-02-08 18:37:00,39.0,34.9,30.00,ENE,68,0.0,0.0,85,0.00,CLR,,0.00,WeatherDisplay:10.37,2013-02-09 02:37:00,
2013-02-08 18:42:00,38.8,35.0,30.01,ENE,68,0.0,0.0,86,0.00,CLR,,0.00,WeatherDisplay:10.37,2013-02-09 02:42:00,
2013-02-08 18:47:00,38.8,35.0,30.00,ENE,68,0.0,0.0,86,0.00,CLR,,0.00,WeatherDisplay:10.37,2013-02-09 02:47:00,
2013-02-08 18:52:00,38.8,35.0,30.01,ENE,68,0.0,0.0,86,0.00,CLR,,0.00,WeatherDisplay:10.37,2013-02-09 02:52:00,
2013-02-08 18:57:00,38.8,35.0,30.01,ENE,68,0.0,0.0,86,0.00,CLR,,0.00,WeatherDisplay:10.37,2013-02-09 02:57:00,
2013-02-08 19:02:00,38.8,35.0,30.01,ENE,68,0.0,0.0,86,0.00,CLR,,0.00,WeatherDisplay:10.37,2013-02-09 03:02:00,
2013-02-08 19:07:00,38.8,35.3,30.01,ENE,68,0.0,0.0,87,0.00,CLR,,0.00,WeatherDisplay:10.37,2013-02-09 03:07:00,
2013-02-08 19:12:00,38.8,35.3,30.01,ENE,68,0.0,0.0,87,0.00,CLR,,0.00,WeatherDisplay:10.37,2013-02-09 03:12:00,
2013-02-08 19:17:00,38.5,34.9,30.01,ENE,68,0.0,0.0,87,0.00,CLR,,0.00,WeatherDisplay:10.37,2013-02-09 03:17:00,
2013-02-08 19:22:00,38.5,34.9,30.01,ENE,68,0.0,0.0,87,0.00,CLR,,0.00,WeatherDisplay:10.37,2013-02-09 03:22:00,
2013-02-08 19:27:00,38.5,34.9,30.01,ENE,68,0.0,0.0,87,0.00,CLR,,0.00,WeatherDisplay:10.37,2013-02-09 03:27:00,
2013-02-08 19:32:00,38.5,34.9,30.01,ENE,68,0.0,0.0,87,0.00,CLR,,0.00,WeatherDisplay:10.37,2013-02-09 03:32:00,
2013-02-08 19:37:00,38.5,34.9,30.01,ENE,68,0.0,0.0,87,0.00,CLR,,0.00,WeatherDisplay:10.37,2013-02-09 03:37:00,
2013-02-08 19:42:00,38.5,34.9,30.01,ENE,68,0.0,0.0,87,0.00,CLR,,0.00,WeatherDisplay:10.37,2013-02-09 03:42:00,
2013-02-08 19:47:00,38.5,34.9,30.01,ENE,68,0.0,0.0,87,0.00,CLR,,0.00,WeatherDisplay:10.37,2013-02-09 03:47:00,
2013-02-08 19:52:00,38.5,34.9,30.01,ENE,68,0.0,0.0,87,0.00,CLR,,0.00,WeatherDisplay:10.37,2013-02-09 03:52:00,
2013-02-08 19:57:00,38.5,34.9,30.01,ENE,68,0.0,0.0,87,0.00,CLR,,0.00,WeatherDisplay:10.37,2013-02-09 03:57:00,
2013-02-08 20:03:00,38.5,35.2,30.01,ENE,68,0.0,0.0,88,0.00,CLR,,0.00,WeatherDisplay:10.37,2013-02-09 04:03:00,
2013-02-08 20:08:00,38.5,35.2,30.01,ENE,68,0.0,0.0,88,0.00,CLR,,0.00,WeatherDisplay:10.37,2013-02-09 04:08:00,
2013-02-08 20:13:00,38.5,35.2,30.01,ENE,68,0.0,0.0,88,0.00,CLR,,0.00,WeatherDisplay:10.37,2013-02-09 04:13:00,
2013-02-08 20:19:00,38.5,35.2,30.01,ENE,68,0.0,0.0,88,0.00,CLR,,0.00,WeatherDisplay:10.37,2013-02-09 04:19:00,
2013-02-08 20:24:00,38.5,35.2,30.01,ENE,68,0.0,0.0,88,0.00,CLR,,0.00,WeatherDisplay:10.37,2013-02-09 04:24:00,
2013-02-08 20:29:00,38.5,35.2,30.01,ENE,68,0.0,0.0,88,0.00,CLR,,0.00,WeatherDisplay:10.37,2013-02-09 04:29:00,
2013-02-08 20:34:00,38.5,35.2,30.01,ENE,68,0.0,0.0,88,0.00,CLR,,0.00,WeatherDisplay:10.37,2013-02-09 04:34:00,
2013-02-08 20:39:00,38.5,35.2,30.01,ENE,68,0.0,0.0,88,0.00,CLR,,0.00,WeatherDisplay:10.37,2013-02-09 04:39:00,
2013-02-08 20:44:00,38.3,35.1,30.01,ENE,68,0.0,0.0,88,0.00,CLR,,0.00,WeatherDisplay:10.37,2013-02-09 04:44:00,
2013-02-08 20:49:00,38.3,35.3,30.01,ENE,68,0.0,0.0,89,0.00,CLR,,0.00,WeatherDisplay:10.37,2013-02-09 04:49:00,
2013-02-08 20:54:00,38.3,35.3,30.01,ENE,68,0.0,0.0,89,0.00,CLR,,0.00,WeatherDisplay:10.37,2013-02-09 04:54:00,
2013-02-08 20:59:00,38.1,35.2,30.01,ENE,68,0.0,0.0,89,0.00,CLR,,0.00,WeatherDisplay:10.37,2013-02-09 04:59:00,
2013-02-08 21:00:00,38.1,35.2,30.01,ENE,68,0.0,0.0,89,0.00,CLR,,0.00,WeatherDisplay:10.37,2013-02-09 05:00:00,
2013-02-08 21:02:00,38.1,35.2,30.01,ENE,68,0.0,0.0,89,0.00,CLR,,0.00,WeatherDisplay:10.37,2013-02-09 05:02:00,
2013-02-08 21:05:00,38.1,35.2,30.01,ENE,68,0.0,0.0,89,0.00,CLR,,0.00,WeatherDisplay:10.37,2013-02-09 05:05:00,
2013-02-08 21:10:00,38.1,35.2,30.01,ENE,68,0.0,0.0,89,0.00,CLR,,0.00,WeatherDisplay:10.37,2013-02-09 05:10:00,
2013-02-08 21:15:00,38.1,35.2,30.01,ENE,68,0.0,0.0,89,0.00,CLR,,0.00,WeatherDisplay:10.37,2013-02-09 05:15:00,
2013-02-08 21:20:00,38.1,35.2,30.01,ENE,68,0.0,0.0,89,0.00,CLR,,0.00,WeatherDisplay:10.37,2013-02-09 05:20:00,
2013-02-08 21:25:00,37.9,35.0,30.01,ENE,68,0.0,0.0,89,0.00,CLR,,0.00,WeatherDisplay:10.37,2013-02-09 05:25:00,
2013-02-08 21:30:00,37.9,35.0,30.01,ENE,68,0.0,0.0,89,0.00,CLR,,0.00,WeatherDisplay:10.37,2013-02-09 05:30:00,
2013-02-08 21:35:00,37.9,35.0,30.01,ENE,68,0.0,0.0,89,0.00,CLR,,0.00,WeatherDisplay:10.37,2013-02-09 05:35:00,
2013-02-08 21:40:00,37.9,35.0,30.01,ENE,68,0.0,0.0,89,0.00,CLR,,0.00,WeatherDisplay:10.37,2013-02-09 05:40:00,
2013-02-08 21:46:00,37.9,35.0,30.01,ENE,68,0.0,0.0,89,0.00,CLR,,0.00,WeatherDisplay:10.37,2013-02-09 05:46:00,
2013-02-08 21:48:00,37.9,35.0,30.01,ENE,68,0.0,0.0,89,0.00,CLR,,0.00,WeatherDisplay:10.37,2013-02-09 05:48:00,
2013-02-08 21:53:00,37.9,35.0,30.01,ENE,68,0.0,0.0,89,0.00,CLR,,0.00,WeatherDisplay:10.37,2013-02-09 05:53:00,
2013-02-08 21:58:00,37.9,35.0,30.01,ENE,68,0.0,0.0,89,0.00,CLR,,0.00,WeatherDisplay:10.37,2013-02-09 05:58:00,
2013-02-08 22:03:00,37.9,35.0,30.01,ENE,68,0.0,0.0,89,0.00,CLR,,0.00,WeatherDisplay:10.37,2013-02-09 06:03:00,
2013-02-08 22:08:00,37.9,35.0,30.01,ENE,68,0.0,0.0,89,0.00,CLR,,0.00,WeatherDisplay:10.37,2013-02-09 06:08:00,
2013-02-08 22:13:00,37.9,35.0,30.01,ENE,68,0.0,0.0,89,0.00,CLR,,0.00,WeatherDisplay:10.37,2013-02-09 06:13:00,
2013-02-08 22:18:00,37.9,35.3,30.01,ENE,68,0.0,0.0,90,0.00,CLR,,0.00,WeatherDisplay:10.37,2013-02-09 06:18:00,
2013-02-08 22:23:00,37.9,35.3,30.01,ENE,68,0.0,0.0,90,0.00,CLR,,0.00,WeatherDisplay:10.37,2013-02-09 06:23:00,
2013-02-08 22:28:00,37.9,35.3,30.01,ENE,68,0.0,0.0,90,0.00,CLR,,0.00,WeatherDisplay:10.37,2013-02-09 06:28:00,
2013-02-08 22:33:00,37.9,35.3,30.01,ENE,68,0.0,0.0,90,0.00,CLR,,0.00,WeatherDisplay:10.37,2013-02-09 06:33:00,
2013-02-08 22:38:00,37.9,35.3,30.01,ENE,68,0.0,0.0,90,0.00,CLR,,0.00,WeatherDisplay:10.37,2013-02-09 06:38:00,
2013-02-08 22:43:00,37.9,35.3,30.01,ENE,68,0.0,0.0,90,0.00,CLR,,0.00,WeatherDisplay:10.37,2013-02-09 06:43:00,
2013-02-08 22:48:00,37.9,35.3,30.01,ENE,68,0.0,0.0,90,0.00,CLR,,0.00,WeatherDisplay:10.37,2013-02-09 06:48:00,
2013-02-08 22:53:00,37.8,35.1,30.01,ENE,68,0.0,0.0,90,0.00,CLR,,0.00,WeatherDisplay:10.37,2013-02-09 06:53:00,
2013-02-08 22:58:00,37.8,35.1,30.01,ENE,68,0.0,0.0,90,0.00,CLR,,0.00,WeatherDisplay:10.37,2013-02-09 06:58:00,
2013-02-08 23:03:00,37.8,35.1,30.01,ENE,68,0.0,0.0,90,0.00,CLR,,0.00,WeatherDisplay:10.37,2013-02-09 07:03:00,
2013-02-08 23:08:00,37.8,35.1,30.01,ENE,68,0.0,0.0,90,0.00,CLR,,0.00,WeatherDisplay:10.37,2013-02-09 07:08:00,
2013-02-08 23:13:00,37.8,35.1,30.01,ENE,68,0.0,0.0,90,0.00,CLR,,0.00,WeatherDisplay:10.37,2013-02-09 07:13:00,
2013-02-08 23:19:00,37.6,34.9,30.01,ENE,68,0.0,0.0,90,0.00,CLR,,0.00,WeatherDisplay:10.37,2013-02-09 07:19:00,
2013-02-08 23:24:00,37.6,34.9,30.01,ENE,68,0.0,0.0,90,0.00,CLR,,0.00,WeatherDisplay:10.37,2013-02-09 07:24:00,
2013-02-08 23:29:00,37.6,34.9,30.01,ENE,68,0.0,0.0,90,0.00,CLR,,0.00,WeatherDisplay:10.37,2013-02-09 07:29:00,
2013-02-08 23:34:00,37.6,35.2,30.01,ENE,68,0.0,0.0,91,0.00,CLR,,0.00,WeatherDisplay:10.37,2013-02-09 07:34:00,
2013-02-08 23:39:00,37.6,35.2,30.01,ENE,68,0.0,0.0,91,0.00,CLR,,0.00,WeatherDisplay:10.37,2013-02-09 07:39:00,
2013-02-08 23:44:00,37.4,35.0,30.01,ENE,68,0.0,0.0,91,0.00,CLR,,0.00,WeatherDisplay:10.37,2013-02-09 07:44:00,
2013-02-08 23:49:00,37.4,35.0,30.00,ENE,68,0.0,0.0,91,0.00,CLR,,0.00,WeatherDisplay:10.37,2013-02-09 07:49:00,
2013-02-08 23:54:00,37.4,35.0,30.00,ENE,68,0.0,0.0,91,0.00,CLR,,0.00,WeatherDisplay:10.37,2013-02-09 07:54:00,
2013-02-08 23:59:00,37.4,35.0,30.01,ENE,68,0.0,0.0,91,0.00,CLR,,0.00,WeatherDisplay:10.37,2013-02-09 07:59:00,